Time;durP1;ratioP1;P1;durP2;ratioP2;P2;SDS_P1;SDS_P2;PMS_P1;PMS_P2;Temp;Humidity;BMP_temperature;BMP_pressure;BME280_temperature;BME280_humidity;BME280_pressure;Samples;Min_cycle;Max_cycle;Signal;HPM_P1;HPM_P2
2024/02/29 00:01:50;;;;;;;26.65;24.38;;;5.20;37.40;;;;;;12461157;28;20065;-85
2024/02/29 00:07:52;;;;;;;27.45;24.95;;;5.20;51.80;;;;;;12450911;28;20071;-81
2024/02/29 00:13:53;;;;;;;28.42;26.02;;;5.20;61.10;;;;;;12454184;28;20096;-81
2024/02/29 00:19:55;;;;;;;28.40;25.98;;;5.00;95.90;;;;;;12439138;28;20501;-80
2024/02/29 00:25:57;;;;;;;29.25;26.77;;;4.90;99.90;;;;;;12461586;28;20077;-81
2024/02/29 00:32:02;;;;;;;29.92;27.20;;;4.90;99.90;;;;;;12431770;28;20045;-82
2024/02/29 00:38:04;;;;;;;;;;;4.90;99.90;;;;;;12478963;28;20049;-82
2024/02/29 00:44:06;;;;;;;25.83;23.73;;;4.80;99.90;;;;;;12442295;28;19979;-82
2024/02/29 00:50:08;;;;;;;27.70;25.10;;;4.70;99.90;;;;;;12433742;28;20052;-83
2024/02/29 00:56:10;;;;;;;25.92;23.52;;;4.70;99.90;;;;;;12435135;28;20068;-82
2024/02/29 01:02:12;;;;;;;26.08;23.63;;;4.70;99.90;;;;;;12453499;28;20506;-81
2024/02/29 01:08:14;;;;;;;25.88;23.38;;;4.60;99.90;;;;;;12441584;28;20780;-81
2024/02/29 01:14:15;;;;;;;24.90;22.40;;;4.60;99.90;;;;;;12453545;28;20057;-81
2024/02/29 01:20:17;;;;;;;26.05;23.80;;;4.50;99.90;;;;;;12446540;28;20098;-82
2024/02/29 01:26:19;;;;;;;24.70;22.42;;;4.60;99.90;;;;;;12439891;28;20095;-83
2024/02/29 01:32:21;;;;;;;23.02;20.95;;;4.50;99.90;;;;;;12439165;28;20172;-82
2024/02/29 01:38:30;;;;;;;22.02;20.02;;;4.50;99.90;;;;;;12447594;28;20064;-83
2024/02/29 01:44:31;;;;;;;22.73;20.63;;;4.50;99.90;;;;;;12454466;28;20049;-84
2024/02/29 01:50:35;;;;;;;21.83;19.77;;;4.40;99.90;;;;;;12443984;28;20091;-82
2024/02/29 01:56:38;;;;;;;21.77;19.77;;;4.30;99.90;;;;;;12457898;28;20054;-82
2024/02/29 02:02:40;;;;;;;21.43;19.53;;;4.30;99.90;;;;;;12453687;28;20068;-83
2024/02/29 02:08:42;;;;;;;20.33;18.23;;;4.30;99.90;;;;;;12453867;28;20136;-86
2024/02/29 02:14:44;;;;;;;20.50;18.30;;;4.20;99.90;;;;;;12455930;28;20112;-83
2024/02/29 02:20:46;;;;;;;21.63;19.55;;;4.20;99.90;;;;;;12451315;28;20050;-83
2024/02/29 02:26:48;;;;;;;20.55;18.63;;;4.20;99.90;;;;;;12455035;28;20529;-83
2024/02/29 02:32:50;;;;;;;20.50;18.38;;;4.20;99.90;;;;;;12461237;28;20515;-82
2024/02/29 02:38:51;;;;;;;20.23;18.17;;;4.20;99.90;;;;;;12446457;28;20045;-82
2024/02/29 02:44:53;;;;;;;19.73;17.88;;;4.20;99.90;;;;;;12447239;28;20517;-82
2024/02/29 02:50:55;;;;;;;20.60;18.40;;;4.20;99.90;;;;;;12446251;28;20052;-82
2024/02/29 02:56:57;;;;;;;18.05;16.20;;;4.20;99.90;;;;;;12444099;28;20049;-85
2024/02/29 03:03:00;;;;;;;19.13;17.13;;;4.20;99.90;;;;;;12438854;28;20062;-83
2024/02/29 03:09:02;;;;;;;17.80;15.73;;;4.30;99.90;;;;;;12421081;28;20422;-86
2024/02/29 03:15:05;;;;;;;17.42;15.68;;;4.20;99.90;;;;;;12449952;28;20057;-83
2024/02/29 03:21:07;;;;;;;19.85;15.95;;;4.20;99.90;;;;;;12416320;28;20483;-83
2024/02/29 03:27:10;;;;;;;18.25;16.35;;;4.20;99.90;;;;;;12420211;28;20609;-83
2024/02/29 03:33:12;;;;;;;17.80;15.53;;;4.00;99.90;;;;;;12445431;28;20466;-83
2024/02/29 03:39:14;;;;;;;18.50;16.60;;;4.00;99.90;;;;;;12422094;28;20057;-87
2024/02/29 03:45:16;;;;;;;16.67;14.85;;;4.20;99.90;;;;;;12421758;28;20149;-83
2024/02/29 03:51:18;;;;;;;18.60;16.15;;;4.20;99.90;;;;;;12441703;28;20046;-82
2024/02/29 03:57:20;;;;;;;16.35;14.77;;;4.20;99.90;;;;;;12448863;28;20430;-83
2024/02/29 04:03:22;;;;;;;18.02;14.73;;;4.30;99.90;;;;;;12467641;28;20089;-82
2024/02/29 04:09:24;;;;;;;18.85;15.43;;;4.40;99.90;;;;;;12468659;28;20069;-83
2024/02/29 04:15:26;;;;;;;16.30;14.60;;;4.40;99.90;;;;;;12454093;28;20057;-82
2024/02/29 04:21:33;;;;;;;18.90;16.90;;;4.30;99.90;;;;;;12443603;28;20045;-83
2024/02/29 04:27:35;;;;;;;18.98;15.38;;;4.20;99.90;;;;;;12476247;28;20500;-82
2024/02/29 04:33:37;;;;;;;16.13;14.38;;;4.20;99.90;;;;;;12473732;28;20489;-83
2024/02/29 04:39:39;;;;;;;19.58;15.90;;;4.20;99.90;;;;;;12464546;28;20077;-82
2024/02/29 04:45:41;;;;;;;17.77;14.77;;;4.20;99.90;;;;;;12437852;28;20084;-83
2024/02/29 04:51:44;;;;;;;16.17;14.57;;;4.20;99.90;;;;;;12457737;28;20045;-81
2024/02/29 04:57:46;;;;;;;16.17;14.52;;;4.20;99.90;;;;;;12434793;28;20053;-82
2024/02/29 05:03:48;;;;;;;16.48;12.70;;;4.10;99.90;;;;;;12451466;28;20057;-81
2024/02/29 05:09:50;;;;;;;14.23;12.75;;;4.10;99.90;;;;;;12436218;28;20064;-82
2024/02/29 05:15:52;;;;;;;15.48;12.88;;;4.10;99.90;;;;;;12432224;28;20058;-86
2024/02/29 05:21:55;;;;;;;15.23;13.63;;;4.20;99.90;;;;;;12449656;28;20069;-80
2024/02/29 05:27:57;;;;;;;15.07;13.40;;;4.20;97.00;;;;;;12440231;28;20050;-81
2024/02/29 05:33:59;;;;;;;14.95;13.35;;;4.10;99.90;;;;;;12457510;28;20421;-82
2024/02/29 05:40:01;;;;;;;17.20;13.15;;;4.20;93.30;;;;;;12455988;28;20058;-81
2024/02/29 05:46:03;;;;;;;16.88;12.40;;;4.20;88.30;;;;;;12433207;28;20103;-82
2024/02/29 05:52:06;;;;;;;16.25;13.30;;;4.10;99.90;;;;;;12439490;28;20042;-87
2024/02/29 05:58:08;;;;;;;15.00;12.77;;;4.10;99.90;;;;;;12439642;28;20049;-87
2024/02/29 06:04:10;;;;;;;17.05;12.88;;;4.10;99.90;;;;;;12444180;28;20095;-87
2024/02/29 06:10:11;;;;;;;13.43;12.00;;;4.10;99.90;;;;;;12449991;28;20053;-88
2024/02/29 06:16:14;;;;;;;14.60;12.15;;;4.20;90.00;;;;;;12439923;28;20053;-87
2024/02/29 06:22:16;;;;;;;14.60;11.95;;;4.30;51.40;;;;;;12448984;28;20471;-88
2024/02/29 06:28:18;;;;;;;13.85;11.50;;;4.30;26.80;;;;;;12442903;28;20053;-88
2024/02/29 06:34:25;;;;;;;13.75;11.10;;;4.30;37.80;;;;;;12462198;28;20056;-87
2024/02/29 06:40:27;;;;;;;12.48;9.57;;;4.40;17.50;;;;;;12447587;28;20084;-87
2024/02/29 06:46:29;;;;;;;11.70;9.85;;;4.60;1.00;;;;;;12442106;28;20057;-88
2024/02/29 06:52:31;;;;;;;12.50;8.27;;;4.80;1.00;;;;;;12421492;28;20465;-86
2024/02/29 06:58:34;;;;;;;11.35;8.77;;;5.00;1.00;;;;;;12436352;28;20084;-85
2024/02/29 07:04:37;;;;;;;9.38;7.60;;;5.10;1.00;;;;;;12417865;28;20042;-87
2024/02/29 07:10:38;;;;;;;9.10;7.32;;;5.20;1.00;;;;;;12438161;28;20064;-85
2024/02/29 07:16:41;;;;;;;9.70;6.85;;;5.30;1.00;;;;;;12420809;28;20346;-86
2024/02/29 07:22:45;;;;;;;9.07;6.22;;;5.30;1.00;;;;;;12415867;28;20050;-86
2024/02/29 07:28:47;;;;;;;;;;;5.40;1.00;;;;;;12433469;28;20046;-87
2024/02/29 07:34:49;;;;;;;8.18;5.03;;;5.60;1.00;;;;;;12396077;28;19928;-87
2024/02/29 07:40:51;;;;;;;7.45;4.40;;;5.60;1.00;;;;;;12405060;28;20050;-84
2024/02/29 07:46:53;;;;;;;6.07;4.32;;;5.80;1.00;;;;;;12426693;28;20065;-87
2024/02/29 07:52:55;;;;;;;6.65;4.57;;;6.00;1.00;;;;;;12435851;28;20053;-84
2024/02/29 07:58:56;;;;;;;7.72;4.65;;;6.20;99.90;;;;;;12435753;28;20054;-86
2024/02/29 08:04:59;;;;;;;7.28;3.92;;;6.40;99.90;;;;;;12449408;28;20054;-86
2024/02/29 08:11:02;;;;;;;6.32;3.15;;;6.60;99.90;;;;;;12464252;28;20053;-82
2024/02/29 08:17:04;;;;;;;7.20;3.25;;;7.00;99.90;;;;;;12457027;28;20054;-82
2024/02/29 08:23:06;;;;;;;7.22;3.33;;;7.20;99.90;;;;;;12458999;28;20050;-87
2024/02/29 08:29:13;;;;;;;5.68;3.22;;;7.50;99.90;;;;;;12443684;28;20042;-88
2024/02/29 08:35:16;;;;;;;6.32;3.63;;;7.80;99.90;;;;;;12458148;28;20102;-88
2024/02/29 08:41:18;;;;;;;5.85;2.88;;;8.10;99.90;;;;;;12453302;28;20168;-88
2024/02/29 08:47:20;;;;;;;5.22;2.90;;;8.30;99.90;;;;;;12455171;28;20042;-89
2024/02/29 08:53:22;;;;;;;5.55;3.00;;;8.50;99.90;;;;;;12465322;28;20084;-87
2024/02/29 08:59:24;;;;;;;7.53;2.72;;;8.60;99.90;;;;;;12452178;28;20053;-87
2024/02/29 09:05:26;;;;;;;7.72;3.60;;;8.60;99.90;;;;;;12451068;28;20394;-85
2024/02/29 09:11:29;;;;;;;6.50;3.50;;;8.80;99.90;;;;;;12442217;28;20417;-87
2024/02/29 09:17:31;;;;;;;6.22;3.30;;;9.00;99.90;;;;;;12451548;28;20086;-86
2024/02/29 09:23:33;;;;;;;6.68;3.53;;;9.30;99.90;;;;;;12430308;28;20104;-84
2024/02/29 09:29:34;;;;;;;7.43;3.67;;;9.50;99.90;;;;;;12446631;28;20054;-83
2024/02/29 09:35:36;;;;;;;8.80;3.85;;;9.60;99.90;;;;;;12464806;28;20050;-82
2024/02/29 09:41:38;;;;;;;5.88;3.67;;;9.80;99.90;;;;;;12425085;28;20522;-82
2024/02/29 09:48:02;;;;;;;5.80;3.13;;;10.00;99.90;;;;;;12451353;28;20099;-83
2024/02/29 09:54:06;;;;;;;6.23;2.73;;;10.20;99.90;;;;;;12467313;28;20481;-82
2024/02/29 10:00:10;;;;;;;;;;;10.50;99.90;;;;;;12459776;28;20088;-84
2024/02/29 10:06:12;;;;;;;5.40;2.73;;;10.60;1.00;;;;;;12449216;28;21198;-83
2024/02/29 10:12:18;;;;;;;5.78;2.95;;;10.70;1.00;;;;;;12467392;28;20292;-85
2024/02/29 10:18:20;;;;;;;6.18;3.33;;;10.80;1.00;;;;;;12471380;28;20094;-85
2024/02/29 10:24:23;;;;;;;7.25;3.45;;;11.00;37.60;;;;;;12479485;28;20583;-85
2024/02/29 10:30:27;;;;;;;7.40;4.00;;;11.10;99.90;;;;;;12458507;28;20138;-84
2024/02/29 10:36:32;;;;;;;8.10;4.00;;;10.80;99.90;;;;;;12466152;28;20099;-82
2024/02/29 10:42:39;;;;;;;7.55;3.88;;;11.00;99.90;;;;;;12466360;28;20045;-86
2024/02/29 10:48:46;;;;;;;8.13;4.70;;;10.90;99.90;;;;;;12485782;28;20049;-85
2024/02/29 10:54:57;;;;;;;8.35;4.30;;;11.10;99.90;;;;;;12455710;28;20092;-84
2024/02/29 11:00:59;;;;;;;8.02;4.15;;;11.10;99.90;;;;;;12436514;28;20129;-83
2024/02/29 11:07:03;;;;;;;8.38;4.68;;;11.00;99.90;;;;;;12449645;28;20050;-83
2024/02/29 11:13:05;;;;;;;7.67;4.50;;;11.10;99.90;;;;;;12444460;28;20113;-84
2024/02/29 11:19:11;;;;;;;8.55;4.40;;;11.10;1.00;;;;;;12446867;28;20060;-83
2024/02/29 11:25:22;;;;;;;10.45;5.13;;;11.30;99.90;;;;;;12457425;28;20041;-83
2024/02/29 11:31:25;;;;;;;8.90;5.03;;;11.20;99.90;;;;;;12434211;28;20438;-83
2024/02/29 11:37:29;;;;;;;11.00;5.57;;;11.20;99.90;;;;;;12464918;28;20077;-84
2024/02/29 11:43:35;;;;;;;7.65;4.50;;;10.90;99.90;;;;;;12420335;28;20050;-84
2024/02/29 11:49:37;;;;;;;7.97;4.43;;;11.00;99.90;;;;;;12464588;28;20077;-83
2024/02/29 11:55:39;;;;;;;8.40;4.53;;;11.30;99.90;;;;;;12446063;28;20042;-84
2024/02/29 12:01:43;;;;;;;6.47;3.63;;;11.30;99.90;;;;;;12447607;28;20065;-87
2024/02/29 12:07:45;;;;;;;7.77;3.93;;;11.30;99.90;;;;;;12458230;28;20042;-88
2024/02/29 12:13:47;;;;;;;6.00;3.40;;;11.50;99.90;;;;;;12438962;28;20053;-83
2024/02/29 12:19:51;;;;;;;6.63;3.67;;;11.70;99.90;;;;;;12455299;28;20505;-84
2024/02/29 12:25:53;;;;;;;5.78;2.97;;;11.90;99.90;;;;;;12470026;28;20045;-84
2024/02/29 12:31:56;;;;;;;5.65;2.83;;;12.00;99.90;;;;;;12470870;28;20049;-84
2024/02/29 12:38:04;;;;;;;4.57;2.58;;;12.00;99.90;;;;;;12435626;28;20057;-86
2024/02/29 12:44:06;;;;;;;5.35;3.22;;;12.00;99.90;;;;;;12467020;28;20049;-84
2024/02/29 12:50:08;;;;;;;6.60;3.13;;;11.90;99.90;;;;;;12421650;28;20458;-82
2024/02/29 12:56:10;;;;;;;4.60;2.55;;;12.00;99.90;;;;;;12450970;28;20053;-85
2024/02/29 13:02:12;;;;;;;6.38;3.58;;;12.00;99.90;;;;;;12453031;28;20054;-87
2024/02/29 13:08:14;;;;;;;6.75;3.58;;;12.10;99.90;;;;;;12474798;28;20491;-84
2024/02/29 13:14:16;;;;;;;6.80;3.08;;;12.30;99.90;;;;;;12460858;28;20487;-84
2024/02/29 13:20:18;;;;;;;5.55;3.10;;;12.10;99.90;;;;;;12453551;28;20057;-84
2024/02/29 13:26:22;;;;;;;8.77;3.70;;;12.10;99.90;;;;;;12474971;28;20083;-83
2024/02/29 13:32:24;;;;;;;9.38;4.40;;;11.90;99.90;;;;;;12431235;28;20049;-84
2024/02/29 13:38:26;;;;;;;7.78;4.05;;;11.60;99.90;;;;;;12465089;28;20136;-84
2024/02/29 13:44:28;;;;;;;7.70;3.70;;;11.80;99.90;;;;;;12443974;28;20056;-83
2024/02/29 13:50:30;;;;;;;7.75;4.30;;;11.90;99.90;;;;;;12450430;28;20694;-82
2024/02/29 13:56:33;;;;;;;7.75;4.45;;;11.90;99.90;;;;;;12440784;28;20060;-83
2024/02/29 14:02:35;;;;;;;7.45;4.13;;;11.80;99.90;;;;;;12475203;28;20060;-84
2024/02/29 14:08:37;;;;;;;8.90;4.45;;;11.70;99.90;;;;;;12513138;28;20050;-86
2024/02/29 14:14:39;;;;;;;6.65;3.65;;;11.90;99.90;;;;;;12486268;28;20042;-86
2024/02/29 14:20:41;;;;;;;7.05;3.78;;;12.00;99.90;;;;;;12469797;28;20050;-84
2024/02/29 14:26:44;;;;;;;7.53;4.03;;;12.00;99.90;;;;;;12505803;28;20049;-86
2024/02/29 14:32:47;;;;;;;11.75;4.53;;;11.80;99.90;;;;;;12510383;22;20046;-36
2024/02/29 14:38:49;;;;;;;13.93;6.90;;;11.80;99.90;;;;;;12410116;28;20100;-35
2024/02/29 14:44:51;;;;;;;12.02;6.82;;;11.90;99.90;;;;;;12420066;28;20129;-36
2024/02/29 14:50:53;;;;;;;12.77;6.47;;;11.70;99.90;;;;;;12422887;28;20053;-37
2024/02/29 14:56:55;;;;;;;14.80;6.50;;;11.80;99.90;;;;;;12435499;28;20463;-36
2024/02/29 15:02:56;;;;;;;11.93;6.70;;;11.80;99.90;;;;;;12426913;28;20049;-35
2024/02/29 15:08:58;;;;;;;13.88;7.30;;;11.60;99.90;;;;;;12405615;28;20123;-36
2024/02/29 15:15:00;;;;;;;14.02;7.97;;;11.50;99.90;;;;;;12424575;28;20104;-35
2024/02/29 15:21:02;;;;;;;12.70;7.20;;;11.50;99.90;;;;;;12431525;28;20054;-36
2024/02/29 15:27:09;;;;;;;15.10;7.13;;;11.30;99.90;;;;;;12433434;28;20045;-35
2024/02/29 15:33:10;;;;;;;15.88;7.50;;;11.30;99.90;;;;;;12428629;28;20053;-35
2024/02/29 15:39:12;;;;;;;15.68;7.70;;;11.30;99.90;;;;;;12433177;28;20489;-35
2024/02/29 15:45:15;;;;;;;16.08;7.40;;;11.40;99.90;;;;;;12430074;28;20049;-36
2024/02/29 15:51:16;;;;;;;14.68;7.68;;;11.30;99.90;;;;;;12437159;28;20129;-36
2024/02/29 15:57:18;;;;;;;19.10;8.40;;;11.20;99.90;;;;;;12426555;28;20420;-36
2024/02/29 16:03:20;;;;;;;14.50;8.52;;;11.00;99.90;;;;;;12432997;28;20062;-36
2024/02/29 16:09:31;;;;;;;17.45;8.65;;;10.90;99.90;;;;;;12431727;28;20073;-36
2024/02/29 16:15:33;;;;;;;17.75;8.73;;;10.80;99.90;;;;;;12432855;28;20058;-36
2024/02/29 16:21:35;;;;;;;16.13;9.10;;;10.70;99.90;;;;;;12434180;28;20265;-36
2024/02/29 16:27:37;;;;;;;17.58;8.85;;;10.60;99.90;;;;;;12408588;28;20099;-36
2024/02/29 16:33:39;;;;;;;18.48;8.63;;;10.50;99.90;;;;;;12432762;28;20058;-36
2024/02/29 16:39:41;;;;;;;15.88;8.00;;;10.30;99.90;;;;;;12432352;28;20061;-36
2024/02/29 16:45:43;;;;;;;17.83;9.27;;;10.30;99.90;;;;;;12423458;28;20399;-36
2024/02/29 16:51:45;;;;;;;16.80;9.00;;;10.20;99.90;;;;;;12415524;28;20042;-35
2024/02/29 16:57:47;;;;;;;18.05;9.05;;;10.10;99.90;;;;;;12428504;28;20764;-36
2024/02/29 17:03:49;;;;;;;16.40;8.73;;;10.10;99.90;;;;;;12433287;28;20415;-35
2024/02/29 17:09:54;;;;;;;17.17;8.75;;;10.00;99.90;;;;;;12416037;28;20049;-36
2024/02/29 17:15:56;;;;;;;15.00;8.45;;;9.90;99.90;;;;;;12439814;28;20417;-36
2024/02/29 17:21:58;;;;;;;15.80;8.57;;;9.70;99.90;;;;;;12435853;28;20054;-35
2024/02/29 17:28:00;;;;;;;18.50;9.23;;;9.60;99.90;;;;;;12435008;28;20046;-35
2024/02/29 17:34:02;;;;;;;15.23;8.32;;;9.50;99.90;;;;;;12435473;28;20410;-36
2024/02/29 17:40:05;;;;;;;16.02;8.05;;;9.40;99.90;;;;;;12428863;28;20046;-35
2024/02/29 17:46:07;;;;;;;14.57;7.88;;;9.40;99.90;;;;;;12422471;28;20049;-36
2024/02/29 17:52:09;;;;;;;18.92;9.40;;;9.30;99.90;;;;;;12433930;28;20049;-35
2024/02/29 17:58:10;;;;;;;17.27;8.52;;;9.20;99.90;;;;;;12439296;28;20080;-36
2024/02/29 18:04:12;;;;;;;17.77;9.13;;;9.20;99.90;;;;;;12424083;28;20422;-35
2024/02/29 18:10:14;;;;;;;16.13;9.10;;;9.00;99.90;;;;;;12436154;28;20524;-36
2024/02/29 18:16:16;;;;;;;17.67;9.10;;;9.00;99.90;;;;;;12437054;28;20056;-36
2024/02/29 18:22:19;;;;;;;18.52;9.85;;;9.00;99.90;;;;;;12427271;28;20050;-34
2024/02/29 18:28:21;;;;;;;15.13;8.75;;;8.90;99.90;;;;;;12437010;28;20498;-36
2024/02/29 18:34:24;;;;;;;18.58;8.85;;;8.90;99.90;;;;;;12436149;28;20069;-35
2024/02/29 18:40:26;;;;;;;18.23;9.95;;;8.90;99.90;;;;;;12424890;28;20051;-36
2024/02/29 18:46:39;;;;;;;14.75;8.55;;;8.80;99.90;;;;;;12435396;28;20046;-36
2024/02/29 18:52:41;;;;;;;16.80;9.35;;;8.70;99.90;;;;;;12428181;28;20050;-34
2024/02/29 18:58:43;;;;;;;16.30;9.65;;;8.60;99.90;;;;;;12433067;28;20056;-36
2024/02/29 19:04:50;;;;;;;17.48;9.35;;;8.50;99.90;;;;;;12434598;28;20046;-36
2024/02/29 19:10:52;;;;;;;19.02;9.30;;;8.50;99.90;;;;;;12430618;28;20073;-36
2024/02/29 19:16:54;;;;;;;15.48;9.10;;;8.50;99.90;;;;;;12430778;28;20049;-36
2024/02/29 19:22:56;;;;;;;16.63;9.20;;;8.50;99.90;;;;;;12432449;28;20085;-36
2024/02/29 19:28:58;;;;;;;17.70;9.68;;;8.40;99.90;;;;;;12430569;28;20534;-36
2024/02/29 19:35:00;;;;;;;16.92;9.70;;;8.40;99.90;;;;;;12434295;28;20064;-36
2024/02/29 19:41:02;;;;;;;15.93;9.00;;;8.30;99.90;;;;;;12433334;28;20513;-36
2024/02/29 19:47:04;;;;;;;16.42;8.98;;;8.30;99.90;;;;;;12426970;28;20185;-36
2024/02/29 19:53:06;;;;;;;15.55;9.07;;;8.20;99.90;;;;;;12437090;28;20042;-36
2024/02/29 19:59:08;;;;;;;17.33;8.43;;;8.20;99.90;;;;;;12428492;28;20521;-36
2024/02/29 20:05:11;;;;;;;14.68;7.68;;;8.20;99.90;;;;;;12433077;28;20050;-36
2024/02/29 20:11:14;;;;;;;14.97;7.90;;;8.20;99.90;;;;;;12431148;28;20087;-36
2024/02/29 20:17:16;;;;;;;14.35;7.60;;;8.20;99.90;;;;;;12432009;28;20511;-35
2024/02/29 20:23:21;;;;;;;16.40;7.38;;;8.10;99.90;;;;;;12433698;28;20132;-36
2024/02/29 20:29:22;;;;;;;15.43;7.65;;;8.10;99.90;;;;;;12427056;28;20184;-35
2024/02/29 20:35:24;;;;;;;16.85;7.97;;;8.20;99.90;;;;;;12427041;28;20056;-36
2024/02/29 20:41:28;;;;;;;17.77;9.23;;;8.10;99.90;;;;;;12403085;28;20050;-36
2024/02/29 20:47:31;;;;;;;18.23;9.55;;;8.00;99.90;;;;;;12430655;28;20069;-36
2024/02/29 20:53:33;;;;;;;19.57;9.43;;;7.80;99.90;;;;;;12425667;28;20049;-35
2024/02/29 20:59:35;;;;;;;18.63;9.35;;;7.70;99.90;;;;;;12415590;28;20095;-36
2024/02/29 21:05:37;;;;;;;19.23;10.10;;;7.60;99.90;;;;;;12438559;28;20100;-36
2024/02/29 21:11:40;;;;;;;18.95;10.50;;;7.60;99.90;;;;;;12412534;28;20050;-36
2024/02/29 21:17:42;;;;;;;18.53;10.90;;;7.50;99.90;;;;;;12440235;28;20100;-35
2024/02/29 21:23:44;;;;;;;21.60;11.40;;;7.40;99.90;;;;;;12444582;28;20232;-36
2024/02/29 21:29:46;;;;;;;19.83;12.63;;;7.30;99.90;;;;;;12436708;28;20050;-36
2024/02/29 21:35:49;;;;;;;20.58;12.60;;;7.20;99.90;;;;;;12440428;28;20572;-36
2024/02/29 21:41:52;;;;;;;21.67;13.07;;;7.10;99.90;;;;;;12407576;28;20054;-35
2024/02/29 21:47:54;;;;;;;20.15;12.77;;;7.10;99.90;;;;;;12436258;28;20187;-36
2024/02/29 21:53:55;;;;;;;23.13;12.93;;;7.00;99.90;;;;;;12435519;28;20045;-36
2024/02/29 21:59:57;;;;;;;20.65;13.02;;;7.00;99.90;;;;;;12430926;28;20049;-36
2024/02/29 22:05:59;;;;;;;21.88;12.18;;;6.90;99.90;;;;;;12435848;28;20049;-36
2024/02/29 22:12:01;;;;;;;19.42;13.10;;;6.90;99.90;;;;;;12417313;28;20479;-36
2024/02/29 22:18:03;;;;;;;22.33;13.40;;;6.80;99.90;;;;;;12440637;28;20137;-36
2024/02/29 22:24:05;;;;;;;23.70;13.27;;;6.70;99.90;;;;;;12434980;28;20046;-35
2024/02/29 22:30:08;;;;;;;23.17;12.43;;;6.60;99.90;;;;;;12417577;28;20049;-36
2024/02/29 22:36:10;;;;;;;22.48;13.02;;;6.60;99.90;;;;;;12435464;28;20053;-36
2024/02/29 22:42:12;;;;;;;21.63;13.25;;;6.50;99.90;;;;;;12428926;28;20529;-35
2024/02/29 22:48:15;;;;;;;21.77;12.60;;;6.40;99.90;;;;;;12440174;28;20129;-36
2024/02/29 22:54:17;;;;;;;25.47;13.77;;;6.40;99.90;;;;;;12422324;28;20502;-36
2024/02/29 23:00:41;;;;;;;24.40;13.18;;;6.40;99.90;;;;;;12411510;28;20107;-36
2024/02/29 23:06:43;;;;;;;21.50;12.55;;;6.30;99.90;;;;;;12432327;28;20053;-36
2024/02/29 23:12:48;;;;;;;22.73;13.25;;;6.30;99.90;;;;;;12431956;28;20046;-36
2024/02/29 23:18:50;;;;;;;24.70;13.70;;;6.30;99.90;;;;;;12434601;28;20103;-35
2024/02/29 23:24:52;;;;;;;25.55;13.40;;;6.30;99.90;;;;;;12434488;28;20111;-36
2024/02/29 23:30:54;;;;;;;26.02;13.25;;;6.30;99.90;;;;;;12430586;28;20037;-36
2024/02/29 23:36:56;;;;;;;24.08;13.85;;;6.30;99.90;;;;;;12432430;28;20062;-36
2024/02/29 23:42:58;;;;;;;28.17;14.05;;;6.30;99.90;;;;;;12437061;28;20528;-36
2024/02/29 23:48:59;;;;;;;26.95;15.27;;;6.20;99.90;;;;;;12422007;28;20052;-35
2024/02/29 23:55:04;;;;;;;28.83;14.77;;;6.20;99.90;;;;;;12432376;28;20046;-35
